createdAt,value
2023-03-06T00:00:34.789Z,2.70
2023-03-06T00:03:02.913Z,2.70
2023-03-06T00:05:32.388Z,2.70
2023-03-06T00:08:00.439Z,2.70
2023-03-06T00:10:30.342Z,2.90
2023-03-06T00:13:02.552Z,2.90
2023-03-06T00:15:31.068Z,3.00
2023-03-06T00:17:59.264Z,2.90
2023-03-06T00:20:28.109Z,2.90
2023-03-06T00:22:58.846Z,2.90
2023-03-06T00:25:27.408Z,3.00
2023-03-06T00:27:55.520Z,2.90
2023-03-06T00:30:25.498Z,3.20
2023-03-06T00:32:54.188Z,3.20
2023-03-06T00:35:22.477Z,2.90
2023-03-06T00:37:50.630Z,2.90
2023-03-06T00:40:22.159Z,2.90
2023-03-06T00:42:50.329Z,2.90
2023-03-06T00:45:18.794Z,2.90
2023-03-06T00:47:46.824Z,2.90
2023-03-06T00:50:14.797Z,2.90
2023-03-06T00:52:43.022Z,2.90
2023-03-06T00:55:11.826Z,2.90
2023-03-06T00:57:41.238Z,2.80
2023-03-06T01:00:10.636Z,2.80
2023-03-06T01:02:38.883Z,2.80
2023-03-06T01:05:08.550Z,2.80
2023-03-06T01:07:36.956Z,2.80
2023-03-06T01:10:05.667Z,2.80
2023-03-06T01:12:33.631Z,2.80
2023-03-06T01:15:03.006Z,2.90
2023-03-06T01:17:31.185Z,2.80
2023-03-06T01:19:59.427Z,2.80
2023-03-06T01:22:27.607Z,2.80
2023-03-06T01:24:55.662Z,2.80
2023-03-06T01:27:25.608Z,3.00
2023-03-06T01:29:53.670Z,2.80
2023-03-06T01:32:23.177Z,2.80
2023-03-06T01:34:51.648Z,2.80
2023-03-06T01:37:19.722Z,2.80
2023-03-06T01:39:47.760Z,2.90
2023-03-06T01:42:16.150Z,2.90
2023-03-06T01:45:02.881Z,3.00
2023-03-06T01:47:32.310Z,3.20
2023-03-06T01:50:03.847Z,3.20
2023-03-06T01:52:36.337Z,3.10
2023-03-06T01:55:09.160Z,3.20
2023-03-06T01:57:41.923Z,3.20
2023-03-06T02:00:12.880Z,3.20
2023-03-06T02:02:45.289Z,3.20
2023-03-06T02:05:13.921Z,3.20
2023-03-06T02:07:43.596Z,3.20
2023-03-06T02:10:13.069Z,3.30
2023-03-06T02:12:43.720Z,3.20
2023-03-06T02:15:12.796Z,3.30
2023-03-06T02:17:42.870Z,3.30
2023-03-06T02:20:17.211Z,3.30
2023-03-06T02:22:48.829Z,3.30
2023-03-06T02:25:36.810Z,3.30
2023-03-06T02:28:06.385Z,3.30
2023-03-06T02:30:35.339Z,3.30
2023-03-06T02:33:04.553Z,3.30
2023-03-06T02:35:34.601Z,3.50
2023-03-06T02:38:07.170Z,3.20
2023-03-06T02:40:36.755Z,3.30
2023-03-06T02:43:06.304Z,3.30
2023-03-06T02:45:38.167Z,3.30
2023-03-06T02:48:06.869Z,3.30
2023-03-06T02:50:34.933Z,3.30
2023-03-06T02:53:03.201Z,3.30
2023-03-06T02:55:31.275Z,3.20
2023-03-06T02:58:00.798Z,3.40
2023-03-06T03:00:30.573Z,3.40
2023-03-06T03:02:58.774Z,3.40
2023-03-06T03:05:26.861Z,3.30
2023-03-06T03:07:55.532Z,3.50
2023-03-06T03:10:23.578Z,3.30
2023-03-06T03:12:51.988Z,3.30
2023-03-06T03:15:21.482Z,3.30
2023-03-06T03:17:49.552Z,3.20
2023-03-06T03:20:20.716Z,3.50
2023-03-06T03:22:49.971Z,3.30
2023-03-06T03:25:18.323Z,3.20
2023-03-06T03:27:46.544Z,3.20
2023-03-06T03:30:15.170Z,3.20
2023-03-06T03:32:44.818Z,3.20
2023-03-06T03:35:13.124Z,3.20
2023-03-06T03:37:41.178Z,3.20
2023-03-06T03:40:11.836Z,3.10
2023-03-06T03:42:42.871Z,3.30
2023-03-06T03:45:11.995Z,3.40
2023-03-06T03:47:40.491Z,3.20
2023-03-06T03:50:11.556Z,3.20
2023-03-06T03:52:40.065Z,3.20
2023-03-06T03:55:09.237Z,3.20
2023-03-06T03:57:39.255Z,3.20
2023-03-06T04:00:08.640Z,3.20
2023-03-06T04:02:36.685Z,3.20
2023-03-06T04:05:05.112Z,3.10
2023-03-06T04:07:34.577Z,3.10
2023-03-06T04:10:02.674Z,3.20
2023-03-06T04:12:30.764Z,2.90
2023-03-06T04:14:59.150Z,3.10
2023-03-06T04:17:27.258Z,3.10
2023-03-06T04:19:55.337Z,2.70
2023-03-06T04:22:23.360Z,2.90
2023-03-06T04:24:52.898Z,2.70
2023-03-06T04:27:20.986Z,2.70
2023-03-06T04:29:49.212Z,2.70
2023-03-06T04:32:18.704Z,2.60
2023-03-06T04:34:47.718Z,2.70
2023-03-06T04:37:21.123Z,2.90
2023-03-06T04:39:49.217Z,2.70
2023-03-06T04:42:19.141Z,2.90
2023-03-06T04:44:47.248Z,2.60
2023-03-06T04:47:16.549Z,2.60
2023-03-06T04:49:46.125Z,2.90
2023-03-06T04:52:14.219Z,2.70
2023-03-06T04:54:42.881Z,2.80
2023-03-06T04:57:11.544Z,2.80
2023-03-06T04:59:41.124Z,2.80
2023-03-06T05:02:09.248Z,2.70
2023-03-06T05:04:37.301Z,2.60
2023-03-06T05:07:05.384Z,2.50
2023-03-06T05:09:35.075Z,2.50
2023-03-06T05:12:03.958Z,2.40
2023-03-06T05:14:32.058Z,2.30
2023-03-06T05:17:01.792Z,2.30
2023-03-06T05:19:29.798Z,2.20
2023-03-06T05:21:57.886Z,2.10
2023-03-06T05:24:26.016Z,2.10
2023-03-06T05:26:54.228Z,2.10
2023-03-06T05:29:22.319Z,2.20
2023-03-06T05:31:50.428Z,2.40
2023-03-06T05:34:20.005Z,2.10
2023-03-06T05:36:48.353Z,2.10
2023-03-06T05:39:16.438Z,2.10
2023-03-06T05:41:44.498Z,2.20
2023-03-06T05:44:12.581Z,2.10
2023-03-06T05:46:40.673Z,2.30
2023-03-06T05:49:08.809Z,2.10
2023-03-06T05:51:38.188Z,2.10
2023-03-06T05:54:06.238Z,2.10
2023-03-06T05:56:34.279Z,2.20
2023-03-06T05:59:02.353Z,2.20
2023-03-06T06:01:30.413Z,2.10
2023-03-06T06:03:58.482Z,2.20
2023-03-06T06:06:26.645Z,2.20
2023-03-06T06:08:56.108Z,2.10
2023-03-06T06:11:24.153Z,2.20
2023-03-06T06:13:52.168Z,2.20
2023-03-06T06:16:20.372Z,2.20
2023-03-06T06:18:48.371Z,2.30
2023-03-06T06:21:16.423Z,2.30
2023-03-06T06:23:44.562Z,2.30
2023-03-06T06:26:13.973Z,2.30
2023-03-06T06:28:42.117Z,2.40
2023-03-06T06:31:12.454Z,2.30
2023-03-06T06:33:41.385Z,2.40
2023-03-06T06:36:16.992Z,2.40
2023-03-06T06:38:45.285Z,2.40
2023-03-06T06:44:07.840Z,2.40
2023-03-06T06:47:20.832Z,2.40
2023-03-06T06:49:25.066Z,2.40
2023-03-06T06:51:53.121Z,2.50
2023-03-06T06:54:22.378Z,2.70
2023-03-06T06:56:51.970Z,2.50
2023-03-06T06:59:20.064Z,2.60
2023-03-06T07:01:48.231Z,2.60
2023-03-06T07:04:16.442Z,2.60
2023-03-06T07:06:44.990Z,2.60
2023-03-06T07:09:13.654Z,2.70
2023-03-06T07:11:42.266Z,2.80
2023-03-06T07:14:11.894Z,3.00
2023-03-06T07:16:40.268Z,2.90
2023-03-06T07:19:08.497Z,3.20
2023-03-06T07:21:36.598Z,3.00
2023-03-06T07:24:05.232Z,3.10
2023-03-06T07:26:34.795Z,3.10
2023-03-06T07:29:03.604Z,3.10
2023-03-06T07:31:33.367Z,3.10
2023-03-06T07:34:03.872Z,3.20
2023-03-06T07:36:34.086Z,3.20
2023-03-06T07:39:02.379Z,3.20
2023-03-06T07:41:30.477Z,3.20
2023-03-06T07:43:58.539Z,3.30
2023-03-06T07:46:26.799Z,3.40
2023-03-06T07:48:56.348Z,3.50
2023-03-06T07:51:24.445Z,3.40
2023-03-06T07:53:52.688Z,3.60
2023-03-06T07:56:20.774Z,3.60
2023-03-06T07:58:49.445Z,3.60
2023-03-06T08:01:19.801Z,3.50
2023-03-06T08:03:50.095Z,3.60
2023-03-06T08:06:21.705Z,3.60
2023-03-06T08:08:50.807Z,3.40
2023-03-06T08:11:20.943Z,3.50
2023-03-06T08:13:49.362Z,3.40
2023-03-06T08:16:17.921Z,3.50
2023-03-06T08:18:46.672Z,3.50
2023-03-06T08:21:17.005Z,3.50
2023-03-06T08:23:48.085Z,3.60
2023-03-06T08:26:18.251Z,3.60
2023-03-06T08:28:46.696Z,3.60
2023-03-06T08:31:25.063Z,3.70
2023-03-06T08:33:53.328Z,3.80
2023-03-06T08:36:21.808Z,3.70
2023-03-06T08:38:51.313Z,3.80
2023-03-06T08:41:20.383Z,3.90
2023-03-06T08:43:48.950Z,4.00
2023-03-06T08:46:18.802Z,4.00
2023-03-06T08:48:47.730Z,4.10
2023-03-06T08:51:16.934Z,4.30
2023-03-06T08:53:45.687Z,4.20
2023-03-06T08:56:19.595Z,4.20
2023-03-06T08:58:48.114Z,4.10
2023-03-06T09:01:17.633Z,4.10
2023-03-06T09:03:46.577Z,4.10
2023-03-06T09:06:15.171Z,4.10
2023-03-06T09:08:44.596Z,4.30
2023-03-06T09:11:13.435Z,4.00
2023-03-06T09:13:43.621Z,4.00
2023-03-06T09:16:12.977Z,4.00
2023-03-06T09:18:41.601Z,4.00
2023-03-06T09:21:10.523Z,3.90
2023-03-06T09:23:40.297Z,3.90
2023-03-06T09:26:09.142Z,4.00
2023-03-06T09:28:39.153Z,4.20
2023-03-06T09:31:11.373Z,4.00
2023-03-06T09:33:39.953Z,4.00
2023-03-06T09:36:09.597Z,4.00
2023-03-06T09:38:37.797Z,4.00
2023-03-06T09:41:15.169Z,4.00
2023-03-06T09:43:46.104Z,4.10
2023-03-06T09:46:21.445Z,3.90
2023-03-06T09:49:02.128Z,4.20
2023-03-06T09:51:36.475Z,4.10
2023-03-06T09:54:12.247Z,3.80
2023-03-06T09:56:51.340Z,3.80
2023-03-06T09:59:22.796Z,3.80
2023-03-06T10:02:01.283Z,3.80
2023-03-06T10:04:39.079Z,3.80
2023-03-06T10:07:14.277Z,3.80
2023-03-06T10:09:47.480Z,3.80
2023-03-06T10:12:28.487Z,3.80
2023-03-06T10:15:07.709Z,3.70
2023-03-06T10:17:43.307Z,3.80
2023-03-06T10:20:20.169Z,3.90
2023-03-06T10:23:03.104Z,3.70
2023-03-06T10:25:37.270Z,3.60
2023-03-06T10:28:16.014Z,3.60
2023-03-06T10:30:51.822Z,3.50
2023-03-06T10:33:33.478Z,3.70
2023-03-06T10:36:02.048Z,3.40
2023-03-06T10:38:37.797Z,3.40
2023-03-06T10:41:10.187Z,3.40
2023-03-06T10:43:40.820Z,3.40
2023-03-06T10:46:11.438Z,3.40
2023-03-06T10:48:42.725Z,3.30
2023-03-06T10:51:19.059Z,3.40
2023-03-06T10:53:53.163Z,3.40
2023-03-06T10:56:32.069Z,3.40
2023-03-06T10:59:08.698Z,3.40
2023-03-06T11:01:36.890Z,3.40
2023-03-06T11:04:23.099Z,3.40
2023-03-06T11:07:07.150Z,3.40
2023-03-06T11:09:36.191Z,3.40
2023-03-06T11:12:24.101Z,3.50
2023-03-06T11:15:14.234Z,3.60
2023-03-06T11:17:51.548Z,3.60
2023-03-06T11:20:23.320Z,3.70
2023-03-06T11:22:56.102Z,3.70
2023-03-06T11:25:29.028Z,3.70
2023-03-06T11:28:00.618Z,3.60
2023-03-06T11:30:36.101Z,3.40
2023-03-06T11:33:11.323Z,3.20
2023-03-06T11:35:51.986Z,2.90
2023-03-06T11:38:24.367Z,2.90
2023-03-06T11:40:55.060Z,2.90
2023-03-06T11:43:29.112Z,2.80
2023-03-06T11:46:03.225Z,2.90
2023-03-06T11:48:36.550Z,3.10
2023-03-06T11:51:13.558Z,3.50
2023-03-06T11:53:42.038Z,3.50
2023-03-06T11:56:30.510Z,3.80
2023-03-06T11:59:10.239Z,4.00
2023-03-06T12:01:42.226Z,4.20
2023-03-06T12:04:38.678Z,4.40
2023-03-06T12:07:20.831Z,4.50
2023-03-06T12:09:57.125Z,4.60
2023-03-06T12:12:47.501Z,4.60
2023-03-06T12:15:24.639Z,4.50
2023-03-06T12:18:09.166Z,4.60
2023-03-06T12:20:48.533Z,4.60
2023-03-06T12:23:36.646Z,4.80
2023-03-06T12:26:17.378Z,4.80
2023-03-06T12:29:05.804Z,4.50
2023-03-06T12:31:47.367Z,4.30
2023-03-06T12:34:24.634Z,4.10
2023-03-06T12:37:05.357Z,4.20
2023-03-06T12:39:49.234Z,4.10
2023-03-06T12:42:30.341Z,4.50
2023-03-06T12:45:27.149Z,4.60
2023-03-06T12:47:57.494Z,4.80
2023-03-06T12:50:28.125Z,5.10
2023-03-06T12:52:58.924Z,5.40
2023-03-06T12:55:29.006Z,5.90
2023-03-06T12:57:57.144Z,5.90
2023-03-06T13:01:04.634Z,6.20
2023-03-06T13:03:46.486Z,6.30
2023-03-06T13:06:34.213Z,6.40
2023-03-06T13:09:16.254Z,6.50
2023-03-06T13:12:13.486Z,6.90
2023-03-06T13:14:57.069Z,7.20
2023-03-06T13:17:37.341Z,7.80
2023-03-06T13:20:39.314Z,7.60
2023-03-06T13:23:58.594Z,7.60
2023-03-06T13:27:02.873Z,7.30
2023-03-06T13:29:51.922Z,7.10
2023-03-06T13:32:29.159Z,7.10
2023-03-06T13:34:57.179Z,7.00
2023-03-06T13:37:53.046Z,7.00
2023-03-06T13:40:34.818Z,6.80
2023-03-06T13:43:26.708Z,6.70
2023-03-06T13:45:54.830Z,6.50
2023-03-06T13:48:44.155Z,6.40
2023-03-06T13:51:23.362Z,6.40
2023-03-06T13:54:20.307Z,6.20
2023-03-06T13:57:27.825Z,5.70
2023-03-06T14:00:22.769Z,5.50
2023-03-06T14:03:27.485Z,5.40
2023-03-06T14:05:56.071Z,5.40
2023-03-06T14:08:26.106Z,5.30
2023-03-06T14:11:03.097Z,5.20
2023-03-06T14:13:46.630Z,5.30
2023-03-06T14:16:23.221Z,5.40
2023-03-06T14:18:53.719Z,5.10
2023-03-06T14:21:30.994Z,5.00
2023-03-06T14:24:01.871Z,4.90
2023-03-06T14:26:33.403Z,4.90
2023-03-06T14:29:02.817Z,4.80
2023-03-06T14:31:34.132Z,4.70
2023-03-06T14:34:04.866Z,4.80
2023-03-06T14:36:35.724Z,4.60
2023-03-06T14:39:08.883Z,4.50
2023-03-06T14:41:38.040Z,4.50
2023-03-06T14:44:10.713Z,4.40
2023-03-06T14:46:40.304Z,4.40
2023-03-06T14:49:09.126Z,4.40
2023-03-06T14:51:42.403Z,4.40
2023-03-06T14:54:15.447Z,4.40
2023-03-06T14:56:48.315Z,4.60
2023-03-06T14:59:21.648Z,4.50
2023-03-06T15:01:52.684Z,4.50
2023-03-06T15:04:27.361Z,4.60
2023-03-06T15:06:56.901Z,4.90
2023-03-06T15:09:28.808Z,4.80
2023-03-06T15:12:00.132Z,4.80
2023-03-06T15:14:33.034Z,4.90
2023-03-06T15:17:23.654Z,5.10
2023-03-06T15:19:54.560Z,5.40
2023-03-06T15:22:31.629Z,5.50
2023-03-06T15:25:20.031Z,5.80
2023-03-06T15:27:52.992Z,5.60
2023-03-06T15:30:29.065Z,6.00
2023-03-06T15:33:24.674Z,5.70
2023-03-06T15:35:54.945Z,5.70
2023-03-06T15:38:26.629Z,5.90
2023-03-06T15:40:59.736Z,5.90
2023-03-06T15:43:29.740Z,5.80
2023-03-06T15:46:00.923Z,5.70
2023-03-06T15:48:30.454Z,5.60
2023-03-06T15:50:58.570Z,5.70
2023-03-06T15:53:26.868Z,5.30
2023-03-06T15:55:55.417Z,5.70
2023-03-06T15:58:26.800Z,5.40
2023-03-06T16:00:54.986Z,5.40
2023-03-06T16:03:23.274Z,5.20
2023-03-06T16:05:52.661Z,5.20
2023-03-06T16:08:21.047Z,5.10
2023-03-06T16:10:50.556Z,5.00
2023-03-06T16:13:23.279Z,4.90
2023-03-06T16:15:51.976Z,5.00
2023-03-06T16:18:20.389Z,4.90
2023-03-06T16:20:48.608Z,4.80
2023-03-06T16:23:18.035Z,4.70
2023-03-06T16:25:49.864Z,4.70
2023-03-06T16:28:18.640Z,4.60
2023-03-06T16:30:47.005Z,4.70
2023-03-06T16:33:15.419Z,4.60
2023-03-06T16:35:46.599Z,4.50
2023-03-06T16:38:15.784Z,4.50
2023-03-06T16:40:45.223Z,4.40
2023-03-06T16:43:16.045Z,4.30
2023-03-06T16:45:44.800Z,4.20
2023-03-06T16:48:16.776Z,4.10
2023-03-06T16:50:45.120Z,4.00
2023-03-06T16:53:13.433Z,4.00
2023-03-06T16:55:41.468Z,3.90
2023-03-06T16:58:10.972Z,3.80
2023-03-06T17:00:39.014Z,3.70
2023-03-06T17:03:07.763Z,3.70
2023-03-06T17:05:37.368Z,3.40
2023-03-06T17:08:05.984Z,3.30
2023-03-06T17:10:34.427Z,3.20
2023-03-06T17:13:02.814Z,3.10
2023-03-06T17:15:32.242Z,3.00
2023-03-06T17:18:00.465Z,2.90
2023-03-06T17:20:28.564Z,2.90
2023-03-06T17:22:56.668Z,2.80
2023-03-06T17:25:25.044Z,2.80
2023-03-06T17:27:53.369Z,3.00
2023-03-06T17:30:21.676Z,2.60
2023-03-06T17:32:51.236Z,2.60
2023-03-06T17:35:19.573Z,2.50
2023-03-06T17:37:47.991Z,2.50
2023-03-06T17:40:16.627Z,2.50
2023-03-06T17:42:44.763Z,2.50
2023-03-06T17:45:13.783Z,2.40
2023-03-06T17:47:41.899Z,2.50
2023-03-06T17:50:12.786Z,2.50
2023-03-06T17:52:41.039Z,2.50
2023-03-06T17:55:09.988Z,2.50
2023-03-06T17:57:38.167Z,2.50
2023-03-06T18:00:07.681Z,2.50
2023-03-06T18:02:35.847Z,2.50
2023-03-06T18:05:04.391Z,2.50
2023-03-06T18:07:33.877Z,2.50
2023-03-06T18:10:01.934Z,2.50
2023-03-06T18:12:30.009Z,2.40
2023-03-06T18:14:58.061Z,2.40
2023-03-06T18:17:26.175Z,2.40
2023-03-06T18:19:56.789Z,2.40
2023-03-06T18:22:24.905Z,2.40
2023-03-06T18:24:54.629Z,2.40
2023-03-06T18:27:22.903Z,2.40
2023-03-06T18:29:52.289Z,2.40
2023-03-06T18:32:20.549Z,2.40
2023-03-06T18:34:50.723Z,2.40
2023-03-06T18:37:19.182Z,2.40
2023-03-06T18:39:47.494Z,2.40
2023-03-06T18:42:17.016Z,2.40
2023-03-06T18:44:47.769Z,2.50
2023-03-06T18:47:16.466Z,2.50
2023-03-06T18:49:46.125Z,2.50
2023-03-06T18:52:14.581Z,2.60
2023-03-06T18:54:42.938Z,2.60
2023-03-06T18:57:12.226Z,2.70
2023-03-06T18:59:41.733Z,2.60
2023-03-06T19:02:12.220Z,3.00
2023-03-06T19:04:40.397Z,2.60
2023-03-06T19:07:08.607Z,2.60
2023-03-06T19:09:36.932Z,2.70
2023-03-06T19:12:05.843Z,2.70
2023-03-06T19:14:34.393Z,2.70
2023-03-06T19:17:04.086Z,2.70
2023-03-06T19:19:32.277Z,2.70
2023-03-06T19:22:00.610Z,2.70
2023-03-06T19:24:28.770Z,2.70
2023-03-06T19:26:56.989Z,2.70
2023-03-06T19:29:25.419Z,2.90
2023-03-06T19:31:56.543Z,2.80
2023-03-06T19:34:26.098Z,2.70
2023-03-06T19:36:54.604Z,2.80
2023-03-06T19:39:22.769Z,2.70
2023-03-06T19:41:50.988Z,2.70
2023-03-06T19:44:19.195Z,2.70
2023-03-06T19:46:47.292Z,2.70
2023-03-06T19:49:18.112Z,2.70
2023-03-06T19:51:47.736Z,2.60
2023-03-06T19:54:16.142Z,2.70
2023-03-06T19:56:44.553Z,2.60
2023-03-06T19:59:12.821Z,2.60
2023-03-06T20:01:41.333Z,2.70
2023-03-06T20:04:09.630Z,2.70
2023-03-06T20:06:39.141Z,2.70
2023-03-06T20:09:10.029Z,2.80
2023-03-06T20:11:38.707Z,2.90
2023-03-06T20:14:08.695Z,2.90
2023-03-06T20:16:37.648Z,2.90
2023-03-06T20:19:06.999Z,2.90
2023-03-06T20:21:37.787Z,3.00
2023-03-06T20:24:06.635Z,3.00
2023-03-06T20:26:38.083Z,3.00
2023-03-06T20:29:06.544Z,3.10
2023-03-06T20:31:35.165Z,3.00
2023-03-06T20:34:03.816Z,3.00
2023-03-06T20:36:35.663Z,3.00
2023-03-06T20:39:06.009Z,3.00
2023-03-06T20:41:36.153Z,2.90
2023-03-06T20:44:06.664Z,2.80
2023-03-06T20:46:35.185Z,2.70
2023-03-06T20:49:03.489Z,2.70
2023-03-06T20:51:33.070Z,2.80
2023-03-06T20:54:03.033Z,2.80
2023-03-06T20:56:33.081Z,2.80
2023-03-06T20:59:02.993Z,2.80
2023-03-06T21:01:33.483Z,2.80
2023-03-06T21:04:04.283Z,2.70
2023-03-06T21:06:32.852Z,2.70
2023-03-06T21:09:02.145Z,2.70
2023-03-06T21:11:30.721Z,2.70
2023-03-06T21:13:59.291Z,2.70
2023-03-06T21:16:30.319Z,2.70
2023-03-06T21:19:00.126Z,2.70
2023-03-06T21:21:30.399Z,2.70
2023-03-06T21:23:58.949Z,2.70
2023-03-06T21:26:29.948Z,2.60
2023-03-06T21:28:59.171Z,3.00
2023-03-06T21:31:29.487Z,2.90
2023-03-06T21:33:58.854Z,3.00
2023-03-06T21:36:28.456Z,3.00
2023-03-06T21:38:56.996Z,3.00
2023-03-06T21:41:27.109Z,2.90
2023-03-06T21:43:56.763Z,3.00
2023-03-06T21:46:25.061Z,3.10
2023-03-06T21:48:54.695Z,3.00
2023-03-06T21:51:24.589Z,3.10
2023-03-06T21:53:53.452Z,2.90
2023-03-06T21:56:24.978Z,2.90
2023-03-06T21:58:53.173Z,3.00
2023-03-06T22:01:23.563Z,3.40
2023-03-06T22:03:51.963Z,3.00
2023-03-06T22:06:23.691Z,3.10
2023-03-06T22:08:52.069Z,3.40
2023-03-06T22:11:22.150Z,3.20
2023-03-06T22:13:51.156Z,3.20
2023-03-06T22:16:20.762Z,3.20
2023-03-06T22:18:50.719Z,3.10
2023-03-06T22:21:22.222Z,3.10
2023-03-06T22:23:50.984Z,3.00
2023-03-06T22:26:19.276Z,3.10
2023-03-06T22:28:47.577Z,3.40
2023-03-06T22:31:17.067Z,3.10
2023-03-06T22:33:45.834Z,3.10
2023-03-06T22:36:15.445Z,3.10
2023-03-06T22:38:46.649Z,3.10
2023-03-06T22:41:16.489Z,3.10
2023-03-06T22:43:45.030Z,3.10
2023-03-06T22:46:14.863Z,3.10
2023-03-06T22:48:43.202Z,3.10
2023-03-06T22:51:13.092Z,3.10
2023-03-06T22:53:41.703Z,3.10
2023-03-06T22:56:12.566Z,3.00
2023-03-06T22:58:41.262Z,2.90
2023-03-06T23:01:11.245Z,3.00
2023-03-06T23:03:40.605Z,3.00
2023-03-06T23:06:13.168Z,3.00
2023-03-06T23:08:41.286Z,3.00
2023-03-06T23:11:12.705Z,3.00
2023-03-06T23:13:41.138Z,3.00
2023-03-06T23:16:10.722Z,3.00
2023-03-06T23:18:40.632Z,3.00
2023-03-06T23:21:09.725Z,3.10
2023-03-06T23:23:38.924Z,3.10
2023-03-06T23:26:08.066Z,3.10
2023-03-06T23:28:37.519Z,3.20
2023-03-06T23:31:08.911Z,3.30
2023-03-06T23:33:38.859Z,3.30
2023-03-06T23:36:08.706Z,3.30
2023-03-06T23:38:37.777Z,3.30
2023-03-06T23:41:07.785Z,3.30
2023-03-06T23:43:37.513Z,3.30
2023-03-06T23:46:07.181Z,3.30
2023-03-06T23:48:36.758Z,3.30
2023-03-06T23:51:07.640Z,3.40
2023-03-06T23:53:36.148Z,3.30
2023-03-06T23:56:06.545Z,3.30
2023-03-06T23:58:35.205Z,3.30
